createdAt,value
2018-08-04T00:02:17.771Z,100218.00
2018-08-04T00:04:45.416Z,100222.00
2018-08-04T00:07:13.127Z,100220.00
2018-08-04T00:09:40.987Z,100217.00
2018-08-04T00:12:08.759Z,100216.00
2018-08-04T00:14:36.731Z,100219.00
2018-08-04T00:17:05.823Z,100209.00
2018-08-04T00:19:33.800Z,100207.00
2018-08-04T00:22:01.519Z,100210.00
2018-08-04T00:24:29.310Z,100205.00
2018-08-04T00:26:56.996Z,100204.00
2018-08-04T00:29:24.731Z,100206.00
2018-08-04T00:31:52.465Z,100205.00
2018-08-04T00:34:20.362Z,100203.00
2018-08-04T00:36:48.060Z,100200.00
2018-08-04T00:39:15.748Z,100200.00
2018-08-04T00:41:43.724Z,100197.00
2018-08-04T00:44:11.414Z,100198.00
2018-08-04T00:46:39.074Z,100198.00
2018-08-04T00:49:07.044Z,100198.00
2018-08-04T00:51:34.724Z,100200.00
2018-08-04T00:54:02.374Z,100196.00
2018-08-04T00:56:30.345Z,100191.00
2018-08-04T00:58:58.100Z,100189.00
2018-08-04T01:01:25.759Z,100191.00
2018-08-04T01:03:54.045Z,100192.00
2018-08-04T01:06:21.701Z,100186.00
2018-08-04T01:08:49.689Z,100186.00
2018-08-04T01:11:17.433Z,100180.00
2018-08-04T01:13:45.101Z,100183.00
2018-08-04T01:16:13.191Z,100180.00
2018-08-04T01:18:40.892Z,100181.00
2018-08-04T01:21:08.536Z,100175.00
2018-08-04T01:23:36.028Z,100169.00
2018-08-04T01:26:04.012Z,100169.00
2018-08-04T01:28:31.666Z,100176.00
2018-08-04T01:30:59.360Z,100179.00
2018-08-04T01:33:27.304Z,100174.00
2018-08-04T01:35:55.024Z,100171.00
2018-08-04T01:38:22.728Z,100169.00
2018-08-04T01:40:50.475Z,100170.00
2018-08-04T01:43:18.128Z,100166.00
2018-08-04T01:45:45.837Z,100172.00
2018-08-04T01:48:13.696Z,100169.00
2018-08-04T01:50:41.405Z,100169.00
2018-08-04T01:53:09.218Z,100164.00
2018-08-04T01:55:37.067Z,100164.00
2018-08-04T01:58:04.838Z,100162.00
2018-08-04T02:00:32.744Z,100159.00
2018-08-04T02:03:01.144Z,100153.00
2018-08-04T02:05:28.881Z,100158.00
2018-08-04T02:07:56.610Z,100156.00
2018-08-04T02:10:24.263Z,100157.00
2018-08-04T02:12:51.923Z,100148.00
2018-08-04T02:15:20.106Z,100147.00
2018-08-04T02:17:48.690Z,100140.00
2018-08-04T02:20:16.343Z,100139.00
2018-08-04T02:22:44.077Z,100140.00
2018-08-04T02:25:11.728Z,100129.00
2018-08-04T02:27:39.364Z,100132.00
2018-08-04T02:30:07.500Z,100128.00
2018-08-04T02:32:35.198Z,100127.00
2018-08-04T02:35:02.937Z,100136.00
2018-08-04T02:37:30.925Z,100131.00
2018-08-04T02:39:58.669Z,100130.00
2018-08-04T02:42:26.345Z,100133.00
2018-08-04T02:44:54.296Z,100128.00
2018-08-04T02:47:21.979Z,100128.00
2018-08-04T02:49:49.609Z,100126.00
2018-08-04T02:52:17.501Z,100128.00
2018-08-04T02:54:45.214Z,100128.00
2018-08-04T02:57:12.918Z,100128.00
2018-08-04T02:59:40.874Z,100126.00
2018-08-04T03:02:08.525Z,100121.00
2018-08-04T03:04:36.169Z,100119.00
2018-08-04T03:07:04.173Z,100116.00
2018-08-04T03:09:31.834Z,100119.00
2018-08-04T03:11:59.460Z,100119.00
2018-08-04T03:14:27.582Z,100119.00
2018-08-04T03:16:55.200Z,100115.00
2018-08-04T03:19:22.869Z,100115.00
2018-08-04T03:21:51.006Z,100118.00
2018-08-04T03:24:18.789Z,100118.00
2018-08-04T03:26:46.766Z,100121.00
2018-08-04T03:29:14.923Z,100123.00
2018-08-04T03:31:42.615Z,100120.00
2018-08-04T03:34:10.290Z,100117.00
2018-08-04T03:36:38.221Z,100122.00
2018-08-04T03:39:08.197Z,100121.00
2018-08-04T03:41:35.896Z,100123.00
2018-08-04T03:44:03.904Z,100126.00
2018-08-04T03:46:31.580Z,100124.00
2018-08-04T03:48:59.256Z,100125.00
2018-08-04T03:51:27.399Z,100128.00
2018-08-04T03:53:55.048Z,100128.00
2018-08-04T03:56:22.948Z,100131.00
2018-08-04T03:58:50.724Z,100133.00
2018-08-04T04:01:18.423Z,100131.00
2018-08-04T04:03:46.425Z,100138.00
2018-08-04T04:06:14.151Z,100131.00
2018-08-04T04:08:42.019Z,100134.00
2018-08-04T04:11:09.719Z,100130.00
2018-08-04T04:13:37.421Z,100128.00
2018-08-04T04:16:05.409Z,100128.00
2018-08-04T04:18:33.075Z,100125.00
2018-08-04T04:21:00.821Z,100126.00
2018-08-04T04:23:28.597Z,100126.00
2018-08-04T04:25:56.304Z,100129.00
2018-08-04T04:28:24.346Z,100123.00
2018-08-04T04:30:52.045Z,100124.00
2018-08-04T04:33:19.693Z,100127.00
2018-08-04T04:35:47.317Z,100126.00
2018-08-04T04:38:15.221Z,100126.00
2018-08-04T04:40:42.881Z,100129.00
2018-08-04T04:43:10.543Z,100132.00
2018-08-04T04:45:38.420Z,100131.00
2018-08-04T04:48:07.146Z,100131.00
2018-08-04T04:50:34.968Z,100131.00
2018-08-04T04:53:02.605Z,100132.00
2018-08-04T04:55:30.299Z,100130.00
2018-08-04T04:57:58.151Z,100131.00
2018-08-04T05:00:25.774Z,100129.00
2018-08-04T05:02:53.402Z,100130.00
2018-08-04T05:05:21.403Z,100137.00
2018-08-04T05:07:49.069Z,100138.00
2018-08-04T05:10:16.680Z,100139.00
2018-08-04T05:12:44.724Z,100139.00
2018-08-04T05:15:12.865Z,100140.00
2018-08-04T05:17:40.606Z,100133.00
2018-08-04T05:20:08.352Z,100124.00
2018-08-04T05:22:36.023Z,100127.00
2018-08-04T05:25:04.693Z,100134.00
2018-08-04T05:27:32.373Z,100127.00
2018-08-04T05:30:00.107Z,100124.00
2018-08-04T05:32:27.986Z,100126.00
2018-08-04T05:34:55.625Z,100128.00
2018-08-04T05:37:23.401Z,100128.00
2018-08-04T05:39:51.442Z,100122.00
2018-08-04T05:42:19.132Z,100128.00
2018-08-04T05:44:46.811Z,100127.00
2018-08-04T05:47:14.712Z,100122.00
2018-08-04T05:49:42.405Z,100123.00
2018-08-04T05:52:10.064Z,100115.00
2018-08-04T05:54:38.274Z,100119.00
2018-08-04T05:57:06.011Z,100121.00
2018-08-04T05:59:33.784Z,100127.00
2018-08-04T06:02:01.517Z,100131.00
2018-08-04T06:04:29.215Z,100130.00
2018-08-04T06:06:56.876Z,100122.00
2018-08-04T06:09:24.869Z,100127.00
2018-08-04T06:11:52.664Z,100123.00
2018-08-04T06:14:21.100Z,100126.00
2018-08-04T06:16:48.757Z,100125.00
2018-08-04T06:19:16.406Z,100132.00
2018-08-04T06:21:44.503Z,100125.00
2018-08-04T06:24:12.277Z,100126.00
2018-08-04T06:26:40.508Z,100134.00
2018-08-04T06:29:08.544Z,100126.00
2018-08-04T06:31:36.356Z,100128.00
2018-08-04T06:34:04.549Z,100125.00
2018-08-04T06:36:33.084Z,100129.00
2018-08-04T06:39:00.959Z,100127.00
2018-08-04T06:41:29.933Z,100123.00
2018-08-04T06:43:59.105Z,100115.00
2018-08-04T06:46:28.652Z,100117.00
2018-08-04T06:48:57.451Z,100118.00
2018-08-04T06:51:25.337Z,100114.00
2018-08-04T06:53:53.100Z,100112.00
2018-08-04T06:56:21.060Z,100114.00
2018-08-04T06:58:48.959Z,100115.00
2018-08-04T07:01:55.085Z,100102.00
2018-08-04T07:24:02.634Z,100100.00
2018-08-04T07:26:30.258Z,100084.00
2018-08-04T07:28:57.906Z,100091.00
2018-08-04T07:31:25.596Z,100082.00
2018-08-04T07:34:00.610Z,100080.00
2018-08-04T07:36:28.328Z,100083.00
2018-08-04T07:38:55.998Z,100080.00
2018-08-04T07:41:24.287Z,100073.00
2018-08-04T07:43:51.971Z,100073.00
2018-08-04T07:46:19.630Z,100072.00
2018-08-04T07:48:47.558Z,100073.00
2018-08-04T07:51:15.250Z,100064.00
2018-08-04T07:53:43.342Z,100069.00
2018-08-04T07:56:11.082Z,100065.00
2018-08-04T07:58:38.725Z,100066.00
2018-08-04T08:01:06.558Z,100071.00
2018-08-04T08:03:34.422Z,100064.00
2018-08-04T08:06:02.068Z,100066.00
2018-08-04T08:08:30.100Z,100065.00
2018-08-04T08:10:57.766Z,100063.00
2018-08-04T08:13:25.458Z,100064.00
2018-08-04T08:15:53.244Z,100064.00
2018-08-04T08:18:20.989Z,100062.00
2018-08-04T08:20:48.666Z,100067.00
2018-08-04T08:23:16.308Z,100055.00
2018-08-04T08:26:19.241Z,100054.00
2018-08-04T08:28:46.884Z,100051.00
2018-08-04T08:31:14.474Z,100050.00
2018-08-04T08:33:42.257Z,100053.00
2018-08-04T08:36:09.959Z,100046.00
2018-08-04T08:38:37.993Z,100048.00
2018-08-04T08:41:05.701Z,100047.00
2018-08-04T08:43:33.386Z,100045.00
2018-08-04T08:46:01.261Z,100044.00
2018-08-04T08:48:28.913Z,100038.00
2018-08-04T08:50:56.614Z,100038.00
2018-08-04T08:53:25.654Z,100040.00
2018-08-04T08:55:53.449Z,100045.00
2018-08-04T08:58:21.143Z,100037.00
2018-08-04T09:00:49.133Z,100039.00
2018-08-04T09:03:16.911Z,100037.00
2018-08-04T09:05:44.916Z,100038.00
2018-08-04T09:08:12.624Z,100041.00
2018-08-04T09:10:40.276Z,100044.00
2018-08-04T09:13:08.399Z,100041.00
2018-08-04T09:15:36.193Z,100042.00
2018-08-04T09:18:03.944Z,100039.00
2018-08-04T09:20:31.600Z,100036.00
2018-08-04T09:22:59.491Z,100038.00
2018-08-04T09:25:27.204Z,100043.00
2018-08-04T09:27:54.852Z,100042.00
2018-08-04T09:30:22.899Z,100046.00
2018-08-04T09:32:50.592Z,100042.00
2018-08-04T09:35:18.312Z,100041.00
2018-08-04T09:37:46.963Z,100029.00
2018-08-04T09:40:15.224Z,100027.00
2018-08-04T09:42:43.829Z,100025.00
2018-08-04T09:45:11.914Z,100021.00
2018-08-04T09:47:40.393Z,100017.00
2018-08-04T09:50:09.915Z,100017.00
2018-08-04T09:52:37.877Z,100012.00
2018-08-04T09:55:07.081Z,100018.00
2018-08-04T09:57:34.888Z,100011.00
2018-08-04T10:00:03.706Z,100011.00
2018-08-04T10:02:31.359Z,99999.00
2018-08-04T10:04:59.241Z,100003.00
2018-08-04T10:07:27.026Z,100008.00
2018-08-04T10:09:54.709Z,99996.00
2018-08-04T10:12:22.637Z,99986.00
2018-08-04T10:14:50.326Z,99990.00
2018-08-04T10:17:17.977Z,99991.00
2018-08-04T10:19:46.185Z,99985.00
2018-08-04T10:22:16.158Z,99984.00
2018-08-04T10:24:43.776Z,99990.00
2018-08-04T10:27:12.270Z,99982.00
2018-08-04T10:29:39.870Z,99985.00
2018-08-04T10:32:08.224Z,99990.00
2018-08-04T10:34:36.337Z,99985.00
2018-08-04T10:37:04.000Z,99990.00
2018-08-04T10:39:33.016Z,99987.00
2018-08-04T10:42:00.849Z,99986.00
2018-08-04T10:44:28.572Z,99986.00
2018-08-04T10:46:56.218Z,99988.00
2018-08-04T10:49:24.191Z,99986.00
2018-08-04T10:51:51.845Z,99985.00
2018-08-04T10:54:19.429Z,99986.00
2018-08-04T10:56:47.205Z,99987.00
2018-08-04T10:59:14.864Z,99986.00
2018-08-04T11:01:42.877Z,99974.00
2018-08-04T11:04:11.936Z,99971.00
2018-08-04T11:06:39.674Z,99976.00
2018-08-04T11:09:09.048Z,99978.00
2018-08-04T11:11:36.995Z,99984.00
2018-08-04T11:14:05.402Z,99990.00
2018-08-04T11:16:32.997Z,99989.00
2018-08-04T11:19:00.915Z,99981.00
2018-08-04T11:21:28.655Z,99980.00
2018-08-04T11:23:56.549Z,99983.00
2018-08-04T11:26:24.205Z,99976.00
2018-08-04T11:28:51.865Z,99980.00
2018-08-04T11:31:20.054Z,99985.00
2018-08-04T11:33:49.608Z,99987.00
2018-08-04T11:36:17.405Z,99986.00
2018-08-04T11:38:45.709Z,99992.00
2018-08-04T11:41:14.950Z,99985.00
2018-08-04T11:43:42.754Z,99978.00
2018-08-04T11:46:11.308Z,99982.00
2018-08-04T11:48:39.025Z,99979.00
2018-08-04T11:51:07.182Z,99978.00
2018-08-04T11:53:36.176Z,99975.00
2018-08-04T11:56:04.139Z,99973.00
2018-08-04T11:58:32.981Z,99967.00
2018-08-04T12:01:01.066Z,99967.00
2018-08-04T12:03:30.177Z,99970.00
2018-08-04T12:05:59.769Z,99968.00
2018-08-04T12:08:28.396Z,99969.00
2018-08-04T12:10:56.061Z,99971.00
2018-08-04T12:13:24.724Z,99965.00
2018-08-04T12:15:52.684Z,99963.00
2018-08-04T12:18:22.034Z,99959.00
2018-08-04T12:20:50.295Z,99956.00
2018-08-04T12:23:18.225Z,99954.00
2018-08-04T12:25:46.241Z,99950.00
2018-08-04T12:28:13.939Z,99951.00
2018-08-04T12:30:41.546Z,99948.00
2018-08-04T12:33:09.809Z,99945.00
2018-08-04T12:35:37.502Z,99949.00
2018-08-04T12:38:05.155Z,99939.00
2018-08-04T12:40:33.066Z,99939.00
2018-08-04T12:43:00.660Z,99943.00
2018-08-04T12:45:28.309Z,99941.00
2018-08-04T12:47:55.965Z,99944.00
2018-08-04T12:50:23.609Z,99952.00
2018-08-04T12:52:51.242Z,99959.00
2018-08-04T12:55:19.096Z,99953.00
2018-08-04T12:57:46.741Z,99945.00
2018-08-04T13:00:14.393Z,99937.00
2018-08-04T13:02:42.656Z,99931.00
2018-08-04T13:05:10.325Z,99916.00
2018-08-04T13:07:38.063Z,99914.00
2018-08-04T13:10:06.069Z,99904.00
2018-08-04T13:12:33.727Z,99899.00
2018-08-04T13:15:01.988Z,99893.00
2018-08-04T13:17:30.073Z,99898.00
2018-08-04T13:19:57.774Z,99896.00
2018-08-04T13:22:25.529Z,99903.00
2018-08-04T13:24:53.604Z,99907.00
2018-08-04T13:27:21.244Z,99915.00
2018-08-04T13:29:48.939Z,99911.00
2018-08-04T13:32:17.332Z,99907.00
2018-08-04T13:34:46.086Z,99901.00
2018-08-04T13:37:13.933Z,99892.00
2018-08-04T13:39:41.587Z,99892.00
2018-08-04T13:42:09.481Z,99888.00
2018-08-04T13:44:37.230Z,99882.00
2018-08-04T13:47:04.954Z,99884.00
2018-08-04T13:49:32.704Z,99877.00
2018-08-04T13:52:00.732Z,99871.00
2018-08-04T13:54:28.682Z,99866.00
2018-08-04T13:56:57.277Z,99869.00
2018-08-04T13:59:25.625Z,99870.00
2018-08-04T14:01:53.530Z,99873.00
2018-08-04T14:04:21.364Z,99865.00
2018-08-04T14:06:49.130Z,99864.00
2018-08-04T14:09:16.845Z,99864.00
2018-08-04T14:11:44.706Z,99869.00
2018-08-04T14:14:12.647Z,99864.00
2018-08-04T14:16:40.472Z,99862.00
2018-08-04T14:19:08.480Z,99861.00
2018-08-04T14:21:36.101Z,99851.00
2018-08-04T14:24:03.700Z,99855.00
2018-08-04T14:26:34.354Z,99856.00
2018-08-04T14:29:02.251Z,99850.00
2018-08-04T14:31:29.851Z,99849.00
2018-08-04T14:33:58.310Z,99848.00
2018-08-04T14:36:26.402Z,99842.00
2018-08-04T14:38:54.228Z,99836.00
2018-08-04T14:41:23.638Z,99831.00
2018-08-04T14:43:52.288Z,99835.00
2018-08-04T14:46:20.157Z,99830.00
2018-08-04T14:48:48.213Z,99840.00
2018-08-04T14:51:15.908Z,99840.00
2018-08-04T14:53:44.052Z,99841.00
2018-08-04T14:56:13.116Z,99848.00
2018-08-04T14:58:41.227Z,99854.00
2018-08-04T15:01:09.874Z,99843.00
2018-08-04T15:03:37.989Z,99837.00
2018-08-04T15:06:06.248Z,99842.00
2018-08-04T15:08:33.868Z,99847.00
2018-08-04T15:11:02.443Z,99851.00
2018-08-04T15:13:30.109Z,99854.00
2018-08-04T15:15:57.853Z,99855.00
2018-08-04T15:18:25.434Z,99866.00
2018-08-04T15:20:53.098Z,99879.00
2018-08-04T15:23:20.921Z,99883.00
2018-08-04T15:25:48.562Z,99886.00
2018-08-04T15:28:16.217Z,99886.00
2018-08-04T15:30:44.639Z,99901.00
2018-08-04T15:33:12.742Z,99914.00
2018-08-04T15:35:40.305Z,99917.00
2018-08-04T15:38:08.237Z,99909.00
2018-08-04T15:40:35.812Z,99909.00
2018-08-04T15:43:05.533Z,99909.00
2018-08-04T15:45:34.736Z,99920.00
2018-08-04T15:48:03.027Z,99920.00
2018-08-04T15:50:30.747Z,99930.00
2018-08-04T15:52:58.893Z,99939.00
2018-08-04T15:55:27.672Z,99943.00
2018-08-04T15:57:55.682Z,99949.00
2018-08-04T16:00:23.914Z,99951.00
2018-08-04T16:02:52.273Z,99943.00
2018-08-04T16:05:20.374Z,99936.00
2018-08-04T16:07:48.011Z,99938.00
2018-08-04T16:10:15.866Z,99944.00
2018-08-04T16:12:43.721Z,99943.00
2018-08-04T16:15:11.665Z,99935.00
2018-08-04T16:17:40.124Z,99926.00
2018-08-04T16:20:13.517Z,99921.00
2018-08-04T16:22:41.398Z,99917.00
2018-08-04T16:25:09.065Z,99923.00
2018-08-04T16:27:38.201Z,99922.00
2018-08-04T16:30:09.410Z,99916.00
2018-08-04T16:32:37.108Z,99915.00
2018-08-04T16:35:05.161Z,99919.00
2018-08-04T16:37:33.080Z,99918.00
2018-08-04T16:40:00.931Z,99924.00
2018-08-04T16:42:28.529Z,99934.00
2018-08-04T16:44:56.731Z,99934.00
2018-08-04T16:47:24.468Z,99937.00
2018-08-04T16:49:53.101Z,99932.00
2018-08-04T16:52:21.824Z,99935.00
2018-08-04T16:54:49.463Z,99934.00
2018-08-04T16:57:33.118Z,99935.00
2018-08-04T17:00:08.059Z,99933.00
2018-08-04T17:02:54.604Z,99931.00
2018-08-04T17:05:22.313Z,99930.00
2018-08-04T17:07:50.336Z,99929.00
2018-08-04T17:10:18.263Z,99925.00
2018-08-04T17:12:45.923Z,99924.00
2018-08-04T17:15:13.521Z,99925.00
2018-08-04T17:17:41.392Z,99927.00
2018-08-04T17:20:09.035Z,99923.00
2018-08-04T17:22:36.937Z,99915.00
2018-08-04T17:25:04.558Z,99916.00
2018-08-04T17:27:32.148Z,99920.00
2018-08-04T17:29:59.906Z,99923.00
2018-08-04T17:32:28.043Z,99928.00
2018-08-04T17:34:55.776Z,99931.00
2018-08-04T17:37:23.975Z,99931.00
2018-08-04T17:39:52.017Z,99933.00
2018-08-04T17:42:19.638Z,99936.00
2018-08-04T17:44:47.255Z,99934.00
2018-08-04T17:47:14.932Z,99934.00
2018-08-04T17:49:42.545Z,99933.00
2018-08-04T17:52:10.172Z,99931.00
2018-08-04T17:54:38.019Z,99932.00
2018-08-04T17:57:05.762Z,99938.00
2018-08-04T18:09:19.460Z,99937.00
2018-08-04T18:11:47.072Z,99929.00
2018-08-04T18:14:15.148Z,99930.00
2018-08-04T18:16:42.713Z,99929.00
2018-08-04T18:19:10.371Z,99931.00
2018-08-04T18:21:37.993Z,99933.00
2018-08-04T18:24:05.796Z,99935.00
2018-08-04T18:26:33.597Z,99941.00
2018-08-04T18:29:01.237Z,99938.00
2018-08-04T18:31:29.213Z,99940.00
2018-08-04T18:33:56.896Z,99936.00
2018-08-04T18:36:24.480Z,99936.00
2018-08-04T18:38:51.921Z,99932.00
2018-08-04T18:41:19.999Z,99936.00
2018-08-04T18:43:47.645Z,99939.00
2018-08-04T18:46:15.216Z,99942.00
2018-08-04T18:48:43.221Z,99943.00
2018-08-04T18:51:10.938Z,99945.00
2018-08-04T18:53:38.535Z,99944.00
2018-08-04T18:56:06.715Z,99951.00
2018-08-04T18:58:34.413Z,99952.00
2018-08-04T19:01:02.030Z,99950.00
2018-08-04T19:03:29.918Z,99954.00
2018-08-04T19:05:57.652Z,99949.00
2018-08-04T19:08:25.270Z,99952.00
2018-08-04T19:10:52.912Z,99957.00
2018-08-04T19:13:20.810Z,99959.00
2018-08-04T19:15:53.079Z,99959.00
2018-08-04T19:18:21.045Z,99958.00
2018-08-04T19:20:48.713Z,99956.00
2018-08-04T19:23:16.328Z,99956.00
2018-08-04T19:25:44.460Z,99954.00
2018-08-04T19:28:12.166Z,99948.00
2018-08-04T19:30:39.759Z,99948.00
2018-08-04T19:33:07.529Z,99951.00
2018-08-04T19:35:34.922Z,99954.00
2018-08-04T19:38:02.794Z,99953.00
2018-08-04T19:40:30.429Z,99952.00
2018-08-04T19:42:58.035Z,99955.00
2018-08-04T19:45:26.493Z,99959.00
2018-08-04T19:47:54.090Z,99958.00
2018-08-04T19:50:21.715Z,99960.00
2018-08-04T19:52:49.925Z,99961.00
2018-08-04T19:55:17.544Z,99963.00
2018-08-04T19:57:45.145Z,99964.00
2018-08-04T20:00:13.136Z,99965.00
2018-08-04T20:02:40.724Z,99965.00
2018-08-04T20:05:08.354Z,99964.00
2018-08-04T20:07:36.257Z,99968.00
2018-08-04T20:10:04.347Z,99967.00
2018-08-04T20:12:32.387Z,99965.00
2018-08-04T20:15:00.457Z,99959.00
2018-08-04T20:17:28.045Z,99960.00
2018-08-04T20:19:55.648Z,99958.00
2018-08-04T20:22:23.605Z,99956.00
2018-08-04T20:24:51.218Z,99958.00
2018-08-04T20:27:18.829Z,99954.00
2018-08-04T20:29:46.668Z,99952.00
2018-08-04T20:32:15.073Z,99947.00
2018-08-04T20:34:42.922Z,99950.00
2018-08-04T20:37:10.584Z,99951.00
2018-08-04T20:39:38.240Z,99956.00
2018-08-04T20:42:06.321Z,99952.00
2018-08-04T20:44:33.967Z,99954.00
2018-08-04T20:47:01.878Z,99953.00
2018-08-04T20:49:29.458Z,99951.00
2018-08-04T20:51:57.092Z,99944.00
2018-08-04T20:54:24.845Z,99941.00
2018-08-04T20:56:52.604Z,99937.00
2018-08-04T20:59:20.240Z,99938.00
2018-08-04T21:01:57.958Z,99937.00
2018-08-04T21:04:26.198Z,99938.00
2018-08-04T21:06:53.838Z,99941.00
2018-08-04T21:09:21.925Z,99944.00
2018-08-04T21:11:50.968Z,99944.00
2018-08-04T21:14:19.904Z,99946.00
2018-08-04T21:16:48.398Z,99944.00
2018-08-04T21:19:16.245Z,99938.00
2018-08-04T21:21:44.247Z,99943.00
2018-08-04T21:24:11.885Z,99946.00
2018-08-04T21:26:39.577Z,99946.00
2018-08-04T21:29:07.468Z,99945.00
2018-08-04T21:31:35.107Z,99948.00
2018-08-04T21:34:02.787Z,99954.00
2018-08-04T21:36:30.609Z,99955.00
2018-08-04T21:38:58.198Z,99958.00
2018-08-04T21:41:26.279Z,99959.00
2018-08-04T21:43:54.380Z,99956.00
2018-08-04T21:46:22.768Z,99957.00
2018-08-04T21:48:50.137Z,99961.00
2018-08-04T21:51:17.862Z,99960.00
2018-08-04T21:53:46.068Z,99961.00
2018-08-04T21:56:13.794Z,99962.00
2018-08-04T21:58:41.691Z,99974.00
2018-08-04T22:01:12.080Z,99986.00
2018-08-04T22:03:40.485Z,100000.00
2018-08-04T22:06:08.122Z,99994.00
2018-08-04T22:08:53.676Z,100008.00
2018-08-04T22:11:21.269Z,100009.00
2018-08-04T22:13:49.317Z,100010.00
2018-08-04T22:16:16.968Z,100006.00
2018-08-04T22:18:44.603Z,99991.00
2018-08-04T22:21:12.934Z,100004.00
2018-08-04T22:23:40.611Z,100004.00
2018-08-04T22:26:08.285Z,99998.00
2018-08-04T22:28:36.128Z,99993.00
2018-08-04T22:31:03.768Z,99995.00
2018-08-04T22:33:31.358Z,99991.00
2018-08-04T22:35:59.120Z,99985.00
2018-08-04T22:38:26.767Z,99981.00
2018-08-04T22:40:54.413Z,99978.00
2018-08-04T22:43:22.345Z,99976.00
2018-08-04T22:46:10.257Z,99972.00
2018-08-04T22:48:38.376Z,99979.00
2018-08-04T22:51:06.021Z,99979.00
2018-08-04T22:53:33.961Z,99982.00
2018-08-04T22:56:01.845Z,99985.00
2018-08-04T22:58:29.530Z,99991.00
2018-08-04T23:00:57.209Z,99997.00
2018-08-04T23:03:26.084Z,99997.00
2018-08-04T23:05:53.810Z,99993.00
2018-08-04T23:08:21.452Z,99996.00
2018-08-04T23:10:49.402Z,99998.00
2018-08-04T23:13:17.212Z,100000.00
2018-08-04T23:15:45.873Z,100007.00
2018-08-04T23:18:13.724Z,100006.00
2018-08-04T23:20:41.465Z,100004.00
2018-08-04T23:23:10.748Z,100010.00
2018-08-04T23:25:38.685Z,100015.00
2018-08-04T23:28:06.861Z,100024.00
2018-08-04T23:30:34.817Z,100019.00
2018-08-04T23:33:02.458Z,100022.00
2018-08-04T23:35:30.642Z,100019.00
2018-08-04T23:37:58.531Z,100012.00
2018-08-04T23:40:26.241Z,100009.00
2018-08-04T23:42:53.919Z,100006.00
2018-08-04T23:45:21.565Z,100011.00
2018-08-04T23:47:49.008Z,100013.00
2018-08-04T23:50:16.839Z,100018.00
2018-08-04T23:52:44.473Z,100042.00
2018-08-04T23:55:12.085Z,100056.00
2018-08-04T23:57:40.195Z,100071.00
